sensor_id;sensor_type;location;lat;lon;timestamp;P1;durP1;ratioP1;P2;durP2;ratioP2
69937;SDS011;57248;47.320;15.998;2024-02-15T00:01:48;1.90;;;0.10;;
69937;SDS011;57248;47.320;15.998;2024-02-15T00:04:14;1.25;;;0.20;;
69937;SDS011;57248;47.320;15.998;2024-02-15T00:06:46;2.20;;;0.07;;
69937;SDS011;57248;47.320;15.998;2024-02-15T00:09:18;5.07;;;0.70;;
69937;SDS011;57248;47.320;15.998;2024-02-15T00:11:50;1.17;;;0.30;;
69937;SDS011;57248;47.320;15.998;2024-02-15T00:14:22;2.00;;;0.82;;
69937;SDS011;57248;47.320;15.998;2024-02-15T00:16:54;1.02;;;0.43;;
69937;SDS011;57248;47.320;15.998;2024-02-15T00:19:26;1.17;;;0.40;;
69937;SDS011;57248;47.320;15.998;2024-02-15T00:22:01;0.10;;;0.00;;
69937;SDS011;57248;47.320;15.998;2024-02-15T00:24:33;2.30;;;0.32;;
69937;SDS011;57248;47.320;15.998;2024-02-15T00:27:15;1.50;;;0.10;;
69937;SDS011;57248;47.320;15.998;2024-02-15T00:29:48;2.22;;;0.20;;
69937;SDS011;57248;47.320;15.998;2024-02-15T00:32:27;2.03;;;0.53;;
69937;SDS011;57248;47.320;15.998;2024-02-15T00:34:59;1.42;;;0.30;;
69937;SDS011;57248;47.320;15.998;2024-02-15T00:37:25;1.53;;;0.40;;
69937;SDS011;57248;47.320;15.998;2024-02-15T00:39:57;3.38;;;0.43;;
69937;SDS011;57248;47.320;15.998;2024-02-15T00:42:30;0.90;;;0.20;;
69937;SDS011;57248;47.320;15.998;2024-02-15T00:45:04;1.05;;;0.20;;
69937;SDS011;57248;47.320;15.998;2024-02-15T00:47:36;0.95;;;0.25;;
69937;SDS011;57248;47.320;15.998;2024-02-15T00:50:13;1.23;;;0.10;;
69937;SDS011;57248;47.320;15.998;2024-02-15T00:52:45;1.55;;;0.10;;
69937;SDS011;57248;47.320;15.998;2024-02-15T00:55:12;0.95;;;0.17;;
69937;SDS011;57248;47.320;15.998;2024-02-15T00:57:44;0.50;;;0.10;;
69937;SDS011;57248;47.320;15.998;2024-02-15T01:00:16;1.38;;;0.35;;
69937;SDS011;57248;47.320;15.998;2024-02-15T01:02:52;2.37;;;0.53;;
69937;SDS011;57248;47.320;15.998;2024-02-15T01:05:24;3.00;;;0.57;;
69937;SDS011;57248;47.320;15.998;2024-02-15T01:07:50;1.07;;;0.27;;
69937;SDS011;57248;47.320;15.998;2024-02-15T01:10:21;2.00;;;0.28;;
69937;SDS011;57248;47.320;15.998;2024-02-15T01:12:55;0.68;;;0.22;;
69937;SDS011;57248;47.320;15.998;2024-02-15T01:15:27;0.80;;;0.17;;
69937;SDS011;57248;47.320;15.998;2024-02-15T01:17:59;3.97;;;0.10;;
69937;SDS011;57248;47.320;15.998;2024-02-15T01:20:33;2.30;;;0.43;;
69937;SDS011;57248;47.320;15.998;2024-02-15T01:23:04;1.25;;;0.30;;
69937;SDS011;57248;47.320;15.998;2024-02-15T01:25:39;1.65;;;0.40;;
69937;SDS011;57248;47.320;15.998;2024-02-15T01:28:18;1.45;;;0.25;;
69937;SDS011;57248;47.320;15.998;2024-02-15T01:30:50;0.98;;;0.10;;
69937;SDS011;57248;47.320;15.998;2024-02-15T01:33:22;0.30;;;0.00;;
69937;SDS011;57248;47.320;15.998;2024-02-15T01:35:48;1.60;;;0.40;;
69937;SDS011;57248;47.320;15.998;2024-02-15T01:38:20;0.13;;;0.00;;
69937;SDS011;57248;47.320;15.998;2024-02-15T01:40:46;1.88;;;0.52;;
69937;SDS011;57248;47.320;15.998;2024-02-15T01:43:18;1.55;;;0.30;;
69937;SDS011;57248;47.320;15.998;2024-02-15T01:45:50;6.40;;;0.57;;
69937;SDS011;57248;47.320;15.998;2024-02-15T01:48:22;1.55;;;0.20;;
69937;SDS011;57248;47.320;15.998;2024-02-15T01:50:54;1.23;;;0.13;;
69937;SDS011;57248;47.320;15.998;2024-02-15T01:53:26;1.23;;;0.30;;
69937;SDS011;57248;47.320;15.998;2024-02-15T01:55:53;2.55;;;0.35;;
69937;SDS011;57248;47.320;15.998;2024-02-15T01:58:29;0.87;;;0.20;;
69937;SDS011;57248;47.320;15.998;2024-02-15T02:01:04;1.70;;;0.10;;
69937;SDS011;57248;47.320;15.998;2024-02-15T02:03:36;0.32;;;0.03;;
69937;SDS011;57248;47.320;15.998;2024-02-15T02:06:09;2.47;;;0.38;;
69937;SDS011;57248;47.320;15.998;2024-02-15T02:08:41;0.55;;;0.08;;
69937;SDS011;57248;47.320;15.998;2024-02-15T02:11:14;1.07;;;0.20;;
69937;SDS011;57248;47.320;15.998;2024-02-15T02:13:46;0.73;;;0.08;;
69937;SDS011;57248;47.320;15.998;2024-02-15T02:16:24;0.50;;;0.10;;
69937;SDS011;57248;47.320;15.998;2024-02-15T02:19:00;1.60;;;0.40;;
69937;SDS011;57248;47.320;15.998;2024-02-15T02:21:27;1.75;;;0.47;;
69937;SDS011;57248;47.320;15.998;2024-02-15T02:23:59;0.40;;;0.17;;
69937;SDS011;57248;47.320;15.998;2024-02-15T02:26:39;0.50;;;0.05;;
69937;SDS011;57248;47.320;15.998;2024-02-15T02:29:11;2.35;;;0.30;;
69937;SDS011;57248;47.320;15.998;2024-02-15T02:31:53;0.57;;;0.03;;
69937;SDS011;57248;47.320;15.998;2024-02-15T02:34:25;1.05;;;0.32;;
69937;SDS011;57248;47.320;15.998;2024-02-15T02:36:57;1.37;;;0.20;;
69937;SDS011;57248;47.320;15.998;2024-02-15T02:39:29;2.63;;;0.40;;
69937;SDS011;57248;47.320;15.998;2024-02-15T02:42:03;0.68;;;0.10;;
69937;SDS011;57248;47.320;15.998;2024-02-15T02:44:35;2.70;;;0.40;;
69937;SDS011;57248;47.320;15.998;2024-02-15T02:47:01;1.80;;;0.30;;
69937;SDS011;57248;47.320;15.998;2024-02-15T02:49:36;1.23;;;0.20;;
69937;SDS011;57248;47.320;15.998;2024-02-15T02:52:08;1.60;;;0.10;;
69937;SDS011;57248;47.320;15.998;2024-02-15T02:54:40;0.40;;;0.10;;
69937;SDS011;57248;47.320;15.998;2024-02-15T02:57:12;1.90;;;0.25;;
69937;SDS011;57248;47.320;15.998;2024-02-15T02:59:44;0.77;;;0.20;;
69937;SDS011;57248;47.320;15.998;2024-02-15T03:02:16;3.85;;;0.45;;
69937;SDS011;57248;47.320;15.998;2024-02-15T03:04:49;1.42;;;0.38;;
69937;SDS011;57248;47.320;15.998;2024-02-15T03:07:15;2.03;;;0.40;;
69937;SDS011;57248;47.320;15.998;2024-02-15T03:09:49;1.58;;;0.25;;
69937;SDS011;57248;47.320;15.998;2024-02-15T03:12:15;4.73;;;0.50;;
69937;SDS011;57248;47.320;15.998;2024-02-15T03:14:49;3.42;;;0.50;;
69937;SDS011;57248;47.320;15.998;2024-02-15T03:17:23;3.13;;;0.70;;
69937;SDS011;57248;47.320;15.998;2024-02-15T03:19:55;1.90;;;0.68;;
69937;SDS011;57248;47.320;15.998;2024-02-15T03:22:21;1.33;;;0.20;;
69937;SDS011;57248;47.320;15.998;2024-02-15T03:24:55;0.65;;;0.08;;
69937;SDS011;57248;47.320;15.998;2024-02-15T03:27:27;0.67;;;0.20;;
69937;SDS011;57248;47.320;15.998;2024-02-15T03:29:59;1.25;;;0.40;;
69937;SDS011;57248;47.320;15.998;2024-02-15T03:32:25;2.45;;;0.50;;
69937;SDS011;57248;47.320;15.998;2024-02-15T03:34:57;3.75;;;0.30;;
69937;SDS011;57248;47.320;15.998;2024-02-15T03:37:31;3.25;;;1.05;;
69937;SDS011;57248;47.320;15.998;2024-02-15T03:40:05;0.90;;;0.07;;
69937;SDS011;57248;47.320;15.998;2024-02-15T03:42:37;0.45;;;0.08;;
69937;SDS011;57248;47.320;15.998;2024-02-15T03:45:09;1.30;;;0.30;;
69937;SDS011;57248;47.320;15.998;2024-02-15T03:47:43;1.50;;;0.32;;
69937;SDS011;57248;47.320;15.998;2024-02-15T03:50:15;1.02;;;0.15;;
69937;SDS011;57248;47.320;15.998;2024-02-15T03:52:41;4.87;;;0.10;;
69937;SDS011;57248;47.320;15.998;2024-02-15T03:55:13;0.45;;;0.10;;
69937;SDS011;57248;47.320;15.998;2024-02-15T03:57:45;1.35;;;0.20;;
69937;SDS011;57248;47.320;15.998;2024-02-15T04:00:17;1.80;;;0.30;;
69937;SDS011;57248;47.320;15.998;2024-02-15T04:02:52;0.73;;;0.10;;
69937;SDS011;57248;47.320;15.998;2024-02-15T04:05:25;0.95;;;0.30;;
69937;SDS011;57248;47.320;15.998;2024-02-15T04:07:57;0.90;;;0.20;;
69937;SDS011;57248;47.320;15.998;2024-02-15T04:10:30;0.75;;;0.10;;
69937;SDS011;57248;47.320;15.998;2024-02-15T04:13:02;1.73;;;0.60;;
69937;SDS011;57248;47.320;15.998;2024-02-15T04:15:28;2.00;;;0.20;;
69937;SDS011;57248;47.320;15.998;2024-02-15T04:18:07;0.60;;;0.13;;
69937;SDS011;57248;47.320;15.998;2024-02-15T04:20:40;1.37;;;0.20;;
69937;SDS011;57248;47.320;15.998;2024-02-15T04:23:17;0.35;;;0.00;;
69937;SDS011;57248;47.320;15.998;2024-02-15T04:25:50;2.05;;;0.10;;
69937;SDS011;57248;47.320;15.998;2024-02-15T04:28:23;1.25;;;0.22;;
69937;SDS011;57248;47.320;15.998;2024-02-15T04:31:02;0.88;;;0.10;;
69937;SDS011;57248;47.320;15.998;2024-02-15T04:33:34;1.83;;;0.50;;
69937;SDS011;57248;47.320;15.998;2024-02-15T04:36:14;0.20;;;0.00;;
69937;SDS011;57248;47.320;15.998;2024-02-15T04:38:43;1.13;;;0.20;;
69937;SDS011;57248;47.320;15.998;2024-02-15T04:41:16;0.55;;;0.10;;
69937;SDS011;57248;47.320;15.998;2024-02-15T04:43:54;0.55;;;0.08;;
69937;SDS011;57248;47.320;15.998;2024-02-15T04:46:26;2.53;;;0.10;;
69937;SDS011;57248;47.320;15.998;2024-02-15T04:48:58;2.78;;;0.38;;
69937;SDS011;57248;47.320;15.998;2024-02-15T04:51:34;1.08;;;0.20;;
69937;SDS011;57248;47.320;15.998;2024-02-15T04:54:07;1.42;;;0.10;;
69937;SDS011;57248;47.320;15.998;2024-02-15T04:56:40;0.68;;;0.10;;
69937;SDS011;57248;47.320;15.998;2024-02-15T04:59:12;0.37;;;0.00;;
69937;SDS011;57248;47.320;15.998;2024-02-15T05:01:46;0.43;;;0.10;;
69937;SDS011;57248;47.320;15.998;2024-02-15T05:04:20;0.15;;;0.00;;
69937;SDS011;57248;47.320;15.998;2024-02-15T05:06:51;3.50;;;0.40;;
69937;SDS011;57248;47.320;15.998;2024-02-15T05:09:24;0.93;;;0.10;;
69937;SDS011;57248;47.320;15.998;2024-02-15T05:11:59;0.50;;;0.03;;
69937;SDS011;57248;47.320;15.998;2024-02-15T05:14:32;0.20;;;0.05;;
69937;SDS011;57248;47.320;15.998;2024-02-15T05:17:04;1.65;;;0.20;;
69937;SDS011;57248;47.320;15.998;2024-02-15T05:19:42;0.40;;;0.03;;
69937;SDS011;57248;47.320;15.998;2024-02-15T05:22:14;1.17;;;0.30;;
69937;SDS011;57248;47.320;15.998;2024-02-15T05:24:46;1.27;;;0.30;;
69937;SDS011;57248;47.320;15.998;2024-02-15T05:27:25;1.33;;;0.30;;
69937;SDS011;57248;47.320;15.998;2024-02-15T05:29:57;1.60;;;0.50;;
69937;SDS011;57248;47.320;15.998;2024-02-15T05:32:23;2.07;;;0.37;;
69937;SDS011;57248;47.320;15.998;2024-02-15T05:34:55;2.17;;;0.45;;
69937;SDS011;57248;47.320;15.998;2024-02-15T05:37:27;1.05;;;0.40;;
69937;SDS011;57248;47.320;15.998;2024-02-15T05:39:59;1.00;;;0.30;;
69937;SDS011;57248;47.320;15.998;2024-02-15T05:42:31;4.10;;;0.63;;
69937;SDS011;57248;47.320;15.998;2024-02-15T05:47:57;6.18;;;2.13;;
69937;SDS011;57248;47.320;15.998;2024-02-15T05:50:23;2.75;;;1.10;;
69937;SDS011;57248;47.320;15.998;2024-02-15T05:52:55;7.72;;;2.63;;
69937;SDS011;57248;47.320;15.998;2024-02-15T05:55:30;9.23;;;1.92;;
69937;SDS011;57248;47.320;15.998;2024-02-15T05:58:02;6.47;;;1.93;;
69937;SDS011;57248;47.320;15.998;2024-02-15T06:00:35;3.03;;;1.08;;
69937;SDS011;57248;47.320;15.998;2024-02-15T06:03:07;2.38;;;0.68;;
69937;SDS011;57248;47.320;15.998;2024-02-15T06:05:42;3.50;;;0.75;;
69937;SDS011;57248;47.320;15.998;2024-02-15T06:08:15;2.25;;;0.60;;
69937;SDS011;57248;47.320;15.998;2024-02-15T06:10:47;2.10;;;0.47;;
69937;SDS011;57248;47.320;15.998;2024-02-15T06:13:20;1.23;;;0.32;;
69937;SDS011;57248;47.320;15.998;2024-02-15T06:15:45;1.42;;;0.30;;
69937;SDS011;57248;47.320;15.998;2024-02-15T06:18:19;2.03;;;0.50;;
69937;SDS011;57248;47.320;15.998;2024-02-15T06:21:05;2.40;;;0.40;;
69937;SDS011;57248;47.320;15.998;2024-02-15T06:23:37;3.60;;;0.77;;
69937;SDS011;57248;47.320;15.998;2024-02-15T06:26:09;1.13;;;0.50;;
69937;SDS011;57248;47.320;15.998;2024-02-15T06:28:55;2.35;;;0.40;;
69937;SDS011;57248;47.320;15.998;2024-02-15T06:31:45;12.15;;;0.32;;
69937;SDS011;57248;47.320;15.998;2024-02-15T06:34:36;4.95;;;1.17;;
69937;SDS011;57248;47.320;15.998;2024-02-15T06:37:34;1.63;;;0.47;;
69937;SDS011;57248;47.320;15.998;2024-02-15T06:40:25;6.72;;;2.85;;
69937;SDS011;57248;47.320;15.998;2024-02-15T06:42:51;12.10;;;2.57;;
69937;SDS011;57248;47.320;15.998;2024-02-15T06:45:23;4.50;;;1.80;;
69937;SDS011;57248;47.320;15.998;2024-02-15T06:47:56;5.07;;;2.08;;
69937;SDS011;57248;47.320;15.998;2024-02-15T06:50:29;6.78;;;1.33;;
69937;SDS011;57248;47.320;15.998;2024-02-15T06:53:02;5.30;;;0.90;;
69937;SDS011;57248;47.320;15.998;2024-02-15T06:55:34;3.80;;;1.53;;
69937;SDS011;57248;47.320;15.998;2024-02-15T06:58:08;7.63;;;3.53;;
69937;SDS011;57248;47.320;15.998;2024-02-15T07:00:40;3.38;;;0.63;;
69937;SDS011;57248;47.320;15.998;2024-02-15T07:03:07;2.17;;;0.50;;
69937;SDS011;57248;47.320;15.998;2024-02-15T07:05:42;2.80;;;0.85;;
69937;SDS011;57248;47.320;15.998;2024-02-15T07:08:14;3.63;;;1.37;;
69937;SDS011;57248;47.320;15.998;2024-02-15T07:10:46;2.95;;;1.00;;
69937;SDS011;57248;47.320;15.998;2024-02-15T07:13:18;3.08;;;1.00;;
69937;SDS011;57248;47.320;15.998;2024-02-15T07:15:50;10.60;;;2.97;;
69937;SDS011;57248;47.320;15.998;2024-02-15T07:18:23;2.65;;;0.75;;
69937;SDS011;57248;47.320;15.998;2024-02-15T07:20:56;4.70;;;1.50;;
69937;SDS011;57248;47.320;15.998;2024-02-15T07:23:30;4.47;;;0.75;;
69937;SDS011;57248;47.320;15.998;2024-02-15T07:26:02;3.78;;;1.08;;
69937;SDS011;57248;47.320;15.998;2024-02-15T07:28:29;3.05;;;0.47;;
69937;SDS011;57248;47.320;15.998;2024-02-15T07:31:02;3.65;;;0.93;;
69937;SDS011;57248;47.320;15.998;2024-02-15T07:33:34;6.03;;;0.83;;
69937;SDS011;57248;47.320;15.998;2024-02-15T07:36:06;2.30;;;0.95;;
69937;SDS011;57248;47.320;15.998;2024-02-15T07:38:38;2.75;;;0.95;;
69937;SDS011;57248;47.320;15.998;2024-02-15T07:41:10;4.38;;;0.85;;
69937;SDS011;57248;47.320;15.998;2024-02-15T07:43:43;4.05;;;1.05;;
69937;SDS011;57248;47.320;15.998;2024-02-15T07:46:16;3.93;;;0.90;;
69937;SDS011;57248;47.320;15.998;2024-02-15T07:48:48;6.20;;;1.10;;
69937;SDS011;57248;47.320;15.998;2024-02-15T07:51:24;3.22;;;0.77;;
69937;SDS011;57248;47.320;15.998;2024-02-15T07:53:56;3.10;;;0.82;;
69937;SDS011;57248;47.320;15.998;2024-02-15T07:56:22;4.30;;;0.80;;
69937;SDS011;57248;47.320;15.998;2024-02-15T07:58:53;5.80;;;1.70;;
69937;SDS011;57248;47.320;15.998;2024-02-15T08:01:19;5.20;;;1.80;;
69937;SDS011;57248;47.320;15.998;2024-02-15T08:03:54;6.50;;;1.13;;
69937;SDS011;57248;47.320;15.998;2024-02-15T08:06:26;4.15;;;1.30;;
69937;SDS011;57248;47.320;15.998;2024-02-15T08:08:53;5.47;;;1.23;;
69937;SDS011;57248;47.320;15.998;2024-02-15T08:11:25;2.60;;;0.67;;
69937;SDS011;57248;47.320;15.998;2024-02-15T08:14:05;5.32;;;1.13;;
69937;SDS011;57248;47.320;15.998;2024-02-15T08:16:53;3.05;;;1.20;;
69937;SDS011;57248;47.320;15.998;2024-02-15T08:19:24;5.63;;;1.25;;
69937;SDS011;57248;47.320;15.998;2024-02-15T08:21:56;5.18;;;1.00;;
69937;SDS011;57248;47.320;15.998;2024-02-15T08:24:28;10.40;;;2.27;;
69937;SDS011;57248;47.320;15.998;2024-02-15T08:27:03;5.28;;;1.70;;
69937;SDS011;57248;47.320;15.998;2024-02-15T08:29:38;7.55;;;2.60;;
69937;SDS011;57248;47.320;15.998;2024-02-15T08:32:17;5.75;;;1.83;;
69937;SDS011;57248;47.320;15.998;2024-02-15T08:34:49;4.28;;;1.40;;
69937;SDS011;57248;47.320;15.998;2024-02-15T08:37:21;6.97;;;2.57;;
69937;SDS011;57248;47.320;15.998;2024-02-15T08:39:53;7.32;;;3.30;;
69937;SDS011;57248;47.320;15.998;2024-02-15T08:42:25;8.10;;;3.53;;
69937;SDS011;57248;47.320;15.998;2024-02-15T08:44:58;13.10;;;6.00;;
69937;SDS011;57248;47.320;15.998;2024-02-15T08:47:30;13.40;;;5.05;;
69937;SDS011;57248;47.320;15.998;2024-02-15T08:50:03;8.67;;;2.93;;
69937;SDS011;57248;47.320;15.998;2024-02-15T08:52:36;6.65;;;2.25;;
69937;SDS011;57248;47.320;15.998;2024-02-15T08:55:10;3.75;;;1.17;;
69937;SDS011;57248;47.320;15.998;2024-02-15T08:57:48;2.65;;;0.95;;
69937;SDS011;57248;47.320;15.998;2024-02-15T09:00:20;4.95;;;1.92;;
69937;SDS011;57248;47.320;15.998;2024-02-15T09:02:52;5.57;;;1.43;;
69937;SDS011;57248;47.320;15.998;2024-02-15T09:05:25;4.95;;;0.80;;
69937;SDS011;57248;47.320;15.998;2024-02-15T09:07:58;4.18;;;1.25;;
69937;SDS011;57248;47.320;15.998;2024-02-15T09:10:30;5.05;;;1.63;;
69937;SDS011;57248;47.320;15.998;2024-02-15T09:12:56;3.93;;;1.60;;
69937;SDS011;57248;47.320;15.998;2024-02-15T09:15:28;2.20;;;0.60;;
69937;SDS011;57248;47.320;15.998;2024-02-15T09:18:02;5.13;;;1.17;;
69937;SDS011;57248;47.320;15.998;2024-02-15T09:20:34;3.58;;;1.08;;
69937;SDS011;57248;47.320;15.998;2024-02-15T09:23:08;3.27;;;0.87;;
69937;SDS011;57248;47.320;15.998;2024-02-15T09:25:41;3.22;;;0.80;;
69937;SDS011;57248;47.320;15.998;2024-02-15T09:28:24;1.95;;;0.50;;
69937;SDS011;57248;47.320;15.998;2024-02-15T09:30:59;2.28;;;0.43;;
69937;SDS011;57248;47.320;15.998;2024-02-15T09:33:32;1.52;;;0.50;;
69937;SDS011;57248;47.320;15.998;2024-02-15T09:36:05;2.13;;;0.40;;
69937;SDS011;57248;47.320;15.998;2024-02-15T09:38:37;1.48;;;0.50;;
69937;SDS011;57248;47.320;15.998;2024-02-15T09:41:09;1.50;;;0.60;;
69937;SDS011;57248;47.320;15.998;2024-02-15T09:43:41;2.83;;;1.15;;
69937;SDS011;57248;47.320;15.998;2024-02-15T09:46:15;3.10;;;1.70;;
69937;SDS011;57248;47.320;15.998;2024-02-15T09:48:50;4.27;;;2.27;;
69937;SDS011;57248;47.320;15.998;2024-02-15T09:51:18;3.53;;;1.92;;
69937;SDS011;57248;47.320;15.998;2024-02-15T09:53:52;3.40;;;1.80;;
69937;SDS011;57248;47.320;15.998;2024-02-15T09:56:27;2.47;;;1.08;;
69937;SDS011;57248;47.320;15.998;2024-02-15T09:59:02;2.55;;;1.20;;
69937;SDS011;57248;47.320;15.998;2024-02-15T10:01:35;3.30;;;1.37;;
69937;SDS011;57248;47.320;15.998;2024-02-15T10:04:08;2.80;;;1.00;;
69937;SDS011;57248;47.320;15.998;2024-02-15T10:06:41;2.42;;;0.98;;
69937;SDS011;57248;47.320;15.998;2024-02-15T10:09:25;2.65;;;1.00;;
69937;SDS011;57248;47.320;15.998;2024-02-15T10:12:00;2.10;;;0.68;;
69937;SDS011;57248;47.320;15.998;2024-02-15T10:14:32;2.30;;;0.80;;
69937;SDS011;57248;47.320;15.998;2024-02-15T10:17:08;2.35;;;0.55;;
69937;SDS011;57248;47.320;15.998;2024-02-15T10:20:04;3.03;;;1.20;;
69937;SDS011;57248;47.320;15.998;2024-02-15T10:22:41;2.65;;;1.40;;
69937;SDS011;57248;47.320;15.998;2024-02-15T10:25:14;2.80;;;1.13;;
69937;SDS011;57248;47.320;15.998;2024-02-15T10:27:45;2.53;;;0.80;;
69937;SDS011;57248;47.320;15.998;2024-02-15T10:30:25;2.67;;;0.43;;
69937;SDS011;57248;47.320;15.998;2024-02-15T10:32:58;2.75;;;0.90;;
69937;SDS011;57248;47.320;15.998;2024-02-15T10:35:31;2.90;;;1.33;;
69937;SDS011;57248;47.320;15.998;2024-02-15T10:40:40;2.27;;;1.10;;
69937;SDS011;57248;47.320;15.998;2024-02-15T10:43:14;4.18;;;2.17;;
69937;SDS011;57248;47.320;15.998;2024-02-15T10:45:49;2.70;;;1.50;;
69937;SDS011;57248;47.320;15.998;2024-02-15T10:48:23;2.15;;;1.42;;
69937;SDS011;57248;47.320;15.998;2024-02-15T10:50:49;2.33;;;1.40;;
69937;SDS011;57248;47.320;15.998;2024-02-15T10:53:27;2.33;;;1.70;;
69937;SDS011;57248;47.320;15.998;2024-02-15T10:59:48;3.38;;;1.60;;
69937;SDS011;57248;47.320;15.998;2024-02-15T11:01:52;2.67;;;1.73;;
69937;SDS011;57248;47.320;15.998;2024-02-15T11:04:29;2.90;;;1.43;;
69937;SDS011;57248;47.320;15.998;2024-02-15T11:07:06;4.65;;;1.63;;
69937;SDS011;57248;47.320;15.998;2024-02-15T11:09:39;2.42;;;1.70;;
69937;SDS011;57248;47.320;15.998;2024-02-15T11:12:11;2.83;;;1.50;;
69937;SDS011;57248;47.320;15.998;2024-02-15T11:14:44;3.03;;;1.60;;
69937;SDS011;57248;47.320;15.998;2024-02-15T11:23:10;3.00;;;1.70;;
69937;SDS011;57248;47.320;15.998;2024-02-15T11:25:42;3.05;;;1.50;;
69937;SDS011;57248;47.320;15.998;2024-02-15T11:30:55;1.97;;;1.30;;
69937;SDS011;57248;47.320;15.998;2024-02-15T11:33:35;2.58;;;1.63;;
69937;SDS011;57248;47.320;15.998;2024-02-15T11:38:43;3.30;;;1.58;;
69937;SDS011;57248;47.320;15.998;2024-02-15T11:41:19;2.42;;;1.80;;
69937;SDS011;57248;47.320;15.998;2024-02-15T11:43:54;2.37;;;1.60;;
69937;SDS011;57248;47.320;15.998;2024-02-15T11:46:27;3.40;;;1.70;;
69937;SDS011;57248;47.320;15.998;2024-02-15T11:49:03;3.83;;;1.52;;
69937;SDS011;57248;47.320;15.998;2024-02-15T11:51:36;2.25;;;1.48;;
69937;SDS011;57248;47.320;15.998;2024-02-15T11:54:13;2.30;;;1.40;;
69937;SDS011;57248;47.320;15.998;2024-02-15T11:56:56;3.27;;;1.60;;
69937;SDS011;57248;47.320;15.998;2024-02-15T11:59:45;2.55;;;1.60;;
69937;SDS011;57248;47.320;15.998;2024-02-15T12:02:36;3.90;;;1.40;;
69937;SDS011;57248;47.320;15.998;2024-02-15T12:05:27;3.08;;;1.20;;
69937;SDS011;57248;47.320;15.998;2024-02-15T12:08:19;3.35;;;1.10;;
69937;SDS011;57248;47.320;15.998;2024-02-15T12:11:13;2.67;;;0.80;;
69937;SDS011;57248;47.320;15.998;2024-02-15T12:14:04;2.25;;;0.60;;
69937;SDS011;57248;47.320;15.998;2024-02-15T12:17:13;2.53;;;0.70;;
69937;SDS011;57248;47.320;15.998;2024-02-15T12:20:06;2.75;;;0.70;;
69937;SDS011;57248;47.320;15.998;2024-02-15T12:22:46;1.95;;;0.50;;
69937;SDS011;57248;47.320;15.998;2024-02-15T12:25:20;2.23;;;0.50;;
69937;SDS011;57248;47.320;15.998;2024-02-15T12:27:56;3.67;;;1.35;;
69937;SDS011;57248;47.320;15.998;2024-02-15T12:30:34;2.80;;;0.55;;
69937;SDS011;57248;47.320;15.998;2024-02-15T12:33:12;2.55;;;0.70;;
69937;SDS011;57248;47.320;15.998;2024-02-15T12:35:50;2.65;;;0.65;;
69937;SDS011;57248;47.320;15.998;2024-02-15T12:38:22;3.00;;;0.97;;
69937;SDS011;57248;47.320;15.998;2024-02-15T12:40:54;3.00;;;1.30;;
69937;SDS011;57248;47.320;15.998;2024-02-15T12:43:28;3.00;;;1.13;;
69937;SDS011;57248;47.320;15.998;2024-02-15T12:46:01;2.33;;;0.70;;
69937;SDS011;57248;47.320;15.998;2024-02-15T12:48:33;1.30;;;0.40;;
69937;SDS011;57248;47.320;15.998;2024-02-15T12:51:15;2.37;;;0.50;;
69937;SDS011;57248;47.320;15.998;2024-02-15T12:53:47;3.70;;;0.20;;
69937;SDS011;57248;47.320;15.998;2024-02-15T12:56:20;5.95;;;0.95;;
69937;SDS011;57248;47.320;15.998;2024-02-15T12:58:52;2.38;;;0.50;;
69937;SDS011;57248;47.320;15.998;2024-02-15T13:01:26;4.93;;;0.40;;
69937;SDS011;57248;47.320;15.998;2024-02-15T13:03:59;2.77;;;0.93;;
69937;SDS011;57248;47.320;15.998;2024-02-15T13:06:32;2.50;;;0.98;;
69937;SDS011;57248;47.320;15.998;2024-02-15T13:09:01;1.58;;;0.55;;
69937;SDS011;57248;47.320;15.998;2024-02-15T13:11:34;4.05;;;0.85;;
69937;SDS011;57248;47.320;15.998;2024-02-15T13:14:08;5.82;;;1.88;;
69937;SDS011;57248;47.320;15.998;2024-02-15T13:16:41;2.40;;;0.80;;
69937;SDS011;57248;47.320;15.998;2024-02-15T13:19:15;2.83;;;1.23;;
69937;SDS011;57248;47.320;15.998;2024-02-15T13:21:47;3.28;;;1.55;;
69937;SDS011;57248;47.320;15.998;2024-02-15T13:24:26;2.28;;;1.08;;
69937;SDS011;57248;47.320;15.998;2024-02-15T13:26:57;4.05;;;0.90;;
69937;SDS011;57248;47.320;15.998;2024-02-15T13:29:30;3.00;;;0.90;;
69937;SDS011;57248;47.320;15.998;2024-02-15T13:32:10;2.67;;;0.90;;
69937;SDS011;57248;47.320;15.998;2024-02-15T13:34:43;2.53;;;1.08;;
69937;SDS011;57248;47.320;15.998;2024-02-15T13:37:17;2.00;;;0.80;;
69937;SDS011;57248;47.320;15.998;2024-02-15T13:39:51;2.85;;;0.90;;
69937;SDS011;57248;47.320;15.998;2024-02-15T13:42:23;4.63;;;0.67;;
69937;SDS011;57248;47.320;15.998;2024-02-15T13:44:55;3.28;;;0.70;;
69937;SDS011;57248;47.320;15.998;2024-02-15T13:47:27;3.80;;;0.63;;
69937;SDS011;57248;47.320;15.998;2024-02-15T13:50:00;2.25;;;0.60;;
69937;SDS011;57248;47.320;15.998;2024-02-15T13:52:32;3.97;;;1.05;;
69937;SDS011;57248;47.320;15.998;2024-02-15T13:55:06;2.07;;;0.60;;
69937;SDS011;57248;47.320;15.998;2024-02-15T13:57:38;2.33;;;0.50;;
69937;SDS011;57248;47.320;15.998;2024-02-15T14:00:12;2.30;;;0.65;;
69937;SDS011;57248;47.320;15.998;2024-02-15T14:02:45;3.00;;;1.02;;
69937;SDS011;57248;47.320;15.998;2024-02-15T14:05:17;2.42;;;0.57;;
69937;SDS011;57248;47.320;15.998;2024-02-15T14:07:52;2.47;;;0.70;;
69937;SDS011;57248;47.320;15.998;2024-02-15T14:10:30;4.68;;;1.05;;
69937;SDS011;57248;47.320;15.998;2024-02-15T14:13:05;2.45;;;0.70;;
69937;SDS011;57248;47.320;15.998;2024-02-15T14:15:38;2.40;;;0.90;;
69937;SDS011;57248;47.320;15.998;2024-02-15T14:18:12;2.35;;;0.63;;
69937;SDS011;57248;47.320;15.998;2024-02-15T14:20:50;4.13;;;0.57;;
69937;SDS011;57248;47.320;15.998;2024-02-15T14:23:22;3.20;;;0.70;;
69937;SDS011;57248;47.320;15.998;2024-02-15T14:25:58;1.70;;;0.52;;
69937;SDS011;57248;47.320;15.998;2024-02-15T14:28:39;1.48;;;0.30;;
69937;SDS011;57248;47.320;15.998;2024-02-15T14:31:12;3.50;;;0.40;;
69937;SDS011;57248;47.320;15.998;2024-02-15T14:34:07;1.30;;;0.20;;
69937;SDS011;57248;47.320;15.998;2024-02-15T14:36:39;2.83;;;0.60;;
69937;SDS011;57248;47.320;15.998;2024-02-15T14:39:07;1.40;;;0.30;;
69937;SDS011;57248;47.320;15.998;2024-02-15T14:41:41;1.63;;;0.22;;
69937;SDS011;57248;47.320;15.998;2024-02-15T14:44:14;1.75;;;0.30;;
69937;SDS011;57248;47.320;15.998;2024-02-15T14:46:46;3.67;;;0.50;;
69937;SDS011;57248;47.320;15.998;2024-02-15T14:49:12;3.42;;;0.52;;
69937;SDS011;57248;47.320;15.998;2024-02-15T14:51:43;3.60;;;0.50;;
69937;SDS011;57248;47.320;15.998;2024-02-15T14:54:17;2.43;;;0.20;;
69937;SDS011;57248;47.320;15.998;2024-02-15T14:56:53;1.65;;;0.40;;
69937;SDS011;57248;47.320;15.998;2024-02-15T14:59:19;2.07;;;0.40;;
69937;SDS011;57248;47.320;15.998;2024-02-15T15:01:51;2.27;;;0.57;;
69937;SDS011;57248;47.320;15.998;2024-02-15T15:04:23;3.08;;;0.52;;
69937;SDS011;57248;47.320;15.998;2024-02-15T15:06:58;2.65;;;0.57;;
69937;SDS011;57248;47.320;15.998;2024-02-15T15:10:03;3.00;;;0.60;;
69937;SDS011;57248;47.320;15.998;2024-02-15T15:12:53;4.18;;;0.50;;
69937;SDS011;57248;47.320;15.998;2024-02-15T15:15:26;2.80;;;0.80;;
69937;SDS011;57248;47.320;15.998;2024-02-15T15:17:58;4.13;;;0.60;;
69937;SDS011;57248;47.320;15.998;2024-02-15T15:20:36;2.00;;;0.60;;
69937;SDS011;57248;47.320;15.998;2024-02-15T15:23:08;3.78;;;1.10;;
69937;SDS011;57248;47.320;15.998;2024-02-15T15:25:43;2.65;;;0.50;;
69937;SDS011;57248;47.320;15.998;2024-02-15T15:28:17;4.70;;;0.80;;
69937;SDS011;57248;47.320;15.998;2024-02-15T15:31:02;6.50;;;0.60;;
69937;SDS011;57248;47.320;15.998;2024-02-15T15:33:37;5.82;;;0.68;;